sensor_id;sensor_type;location;lat;lon;timestamp;P1;durP1;ratioP1;P2;durP2;ratioP2
46651;SDS011;32377;52.182;5.398;2022-08-06T00:01:41;7.80;;;2.30;;
46651;SDS011;32377;52.182;5.398;2022-08-06T00:04:07;13.80;;;2.55;;
46651;SDS011;32377;52.182;5.398;2022-08-06T00:06:33;6.47;;;2.10;;
46651;SDS011;32377;52.182;5.398;2022-08-06T00:08:58;9.07;;;2.15;;
46651;SDS011;32377;52.182;5.398;2022-08-06T00:11:24;4.93;;;2.00;;
46651;SDS011;32377;52.182;5.398;2022-08-06T00:13:50;11.65;;;2.40;;
46651;SDS011;32377;52.182;5.398;2022-08-06T00:16:16;11.90;;;2.35;;
46651;SDS011;32377;52.182;5.398;2022-08-06T00:18:41;6.38;;;1.90;;
46651;SDS011;32377;52.182;5.398;2022-08-06T00:21:08;6.22;;;2.22;;
46651;SDS011;32377;52.182;5.398;2022-08-06T00:23:33;8.60;;;2.33;;
46651;SDS011;32377;52.182;5.398;2022-08-06T00:25:59;10.43;;;2.40;;
46651;SDS011;32377;52.182;5.398;2022-08-06T00:28:25;7.57;;;2.08;;
46651;SDS011;32377;52.182;5.398;2022-08-06T00:30:51;8.70;;;2.38;;
46651;SDS011;32377;52.182;5.398;2022-08-06T00:33:16;9.07;;;2.45;;
46651;SDS011;32377;52.182;5.398;2022-08-06T00:35:42;8.50;;;2.28;;
46651;SDS011;32377;52.182;5.398;2022-08-06T00:38:08;6.15;;;2.13;;
46651;SDS011;32377;52.182;5.398;2022-08-06T00:40:34;11.98;;;2.85;;
46651;SDS011;32377;52.182;5.398;2022-08-06T00:43:01;5.88;;;2.72;;
46651;SDS011;32377;52.182;5.398;2022-08-06T00:45:28;6.78;;;2.60;;
46651;SDS011;32377;52.182;5.398;2022-08-06T00:47:56;11.73;;;3.30;;
46651;SDS011;32377;52.182;5.398;2022-08-06T00:50:21;12.15;;;2.47;;
46651;SDS011;32377;52.182;5.398;2022-08-06T00:52:47;6.07;;;2.47;;
46651;SDS011;32377;52.182;5.398;2022-08-06T00:55:13;14.40;;;2.97;;
46651;SDS011;32377;52.182;5.398;2022-08-06T00:57:39;14.15;;;2.95;;
46651;SDS011;32377;52.182;5.398;2022-08-06T01:00:05;12.48;;;2.60;;
46651;SDS011;32377;52.182;5.398;2022-08-06T01:02:32;6.35;;;2.28;;
46651;SDS011;32377;52.182;5.398;2022-08-06T01:04:59;6.55;;;2.83;;
46651;SDS011;32377;52.182;5.398;2022-08-06T01:07:24;12.60;;;2.88;;
46651;SDS011;32377;52.182;5.398;2022-08-06T01:09:50;8.00;;;2.25;;
46651;SDS011;32377;52.182;5.398;2022-08-06T01:12:16;6.68;;;2.05;;
46651;SDS011;32377;52.182;5.398;2022-08-06T01:14:42;11.45;;;2.53;;
46651;SDS011;32377;52.182;5.398;2022-08-06T01:17:27;9.25;;;2.47;;
46651;SDS011;32377;52.182;5.398;2022-08-06T01:20:01;9.57;;;2.30;;
46651;SDS011;32377;52.182;5.398;2022-08-06T01:26:26;8.68;;;2.60;;
46651;SDS011;32377;52.182;5.398;2022-08-06T01:28:45;9.35;;;3.22;;
46651;SDS011;32377;52.182;5.398;2022-08-06T01:31:17;5.97;;;2.25;;
46651;SDS011;32377;52.182;5.398;2022-08-06T01:33:50;5.10;;;2.40;;
46651;SDS011;32377;52.182;5.398;2022-08-06T01:36:23;11.20;;;2.42;;
46651;SDS011;32377;52.182;5.398;2022-08-06T01:38:58;7.60;;;2.20;;
46651;SDS011;32377;52.182;5.398;2022-08-06T01:41:25;8.05;;;2.40;;
46651;SDS011;32377;52.182;5.398;2022-08-06T01:44:08;7.10;;;2.38;;
46651;SDS011;32377;52.182;5.398;2022-08-06T01:46:37;10.35;;;2.75;;
46651;SDS011;32377;52.182;5.398;2022-08-06T01:49:06;8.80;;;2.88;;
46651;SDS011;32377;52.182;5.398;2022-08-06T01:51:33;9.00;;;3.15;;
46651;SDS011;32377;52.182;5.398;2022-08-06T01:54:00;4.38;;;2.35;;
46651;SDS011;32377;52.182;5.398;2022-08-06T01:56:27;9.05;;;3.13;;
46651;SDS011;32377;52.182;5.398;2022-08-06T01:58:56;8.18;;;2.58;;
46651;SDS011;32377;52.182;5.398;2022-08-06T02:01:22;11.55;;;3.00;;
46651;SDS011;32377;52.182;5.398;2022-08-06T02:03:51;7.50;;;2.70;;
46651;SDS011;32377;52.182;5.398;2022-08-06T02:06:20;6.72;;;2.78;;
46651;SDS011;32377;52.182;5.398;2022-08-06T02:08:49;8.90;;;2.80;;
46651;SDS011;32377;52.182;5.398;2022-08-06T02:11:17;10.38;;;2.72;;
46651;SDS011;32377;52.182;5.398;2022-08-06T02:13:43;6.00;;;2.20;;
46651;SDS011;32377;52.182;5.398;2022-08-06T02:16:11;7.50;;;3.00;;
46651;SDS011;32377;52.182;5.398;2022-08-06T02:18:39;6.45;;;2.83;;
46651;SDS011;32377;52.182;5.398;2022-08-06T02:21:09;7.70;;;2.70;;
46651;SDS011;32377;52.182;5.398;2022-08-06T02:23:42;7.72;;;2.45;;
46651;SDS011;32377;52.182;5.398;2022-08-06T02:26:09;6.78;;;2.85;;
46651;SDS011;32377;52.182;5.398;2022-08-06T02:28:36;7.60;;;2.58;;
46651;SDS011;32377;52.182;5.398;2022-08-06T02:31:04;5.22;;;2.38;;
46651;SDS011;32377;52.182;5.398;2022-08-06T02:33:29;4.88;;;2.85;;
46651;SDS011;32377;52.182;5.398;2022-08-06T02:38:47;12.80;;;3.60;;
46651;SDS011;32377;52.182;5.398;2022-08-06T02:41:18;8.50;;;2.72;;
46651;SDS011;32377;52.182;5.398;2022-08-06T02:43:57;6.95;;;3.20;;
46651;SDS011;32377;52.182;5.398;2022-08-06T02:46:31;9.20;;;3.45;;
46651;SDS011;32377;52.182;5.398;2022-08-06T02:51:54;9.55;;;3.25;;
46651;SDS011;32377;52.182;5.398;2022-08-06T02:54:33;5.95;;;2.83;;
46651;SDS011;32377;52.182;5.398;2022-08-06T02:57:05;8.70;;;4.07;;
46651;SDS011;32377;52.182;5.398;2022-08-06T02:59:33;9.63;;;3.25;;
46651;SDS011;32377;52.182;5.398;2022-08-06T03:02:03;5.85;;;2.75;;
46651;SDS011;32377;52.182;5.398;2022-08-06T03:04:34;11.18;;;3.22;;
46651;SDS011;32377;52.182;5.398;2022-08-06T03:07:05;10.73;;;3.60;;
46651;SDS011;32377;52.182;5.398;2022-08-06T03:09:34;8.90;;;3.40;;
46651;SDS011;32377;52.182;5.398;2022-08-06T03:12:01;5.07;;;3.17;;
46651;SDS011;32377;52.182;5.398;2022-08-06T03:14:28;6.15;;;2.85;;
46651;SDS011;32377;52.182;5.398;2022-08-06T03:16:56;6.85;;;3.28;;
46651;SDS011;32377;52.182;5.398;2022-08-06T03:19:23;9.57;;;3.13;;
46651;SDS011;32377;52.182;5.398;2022-08-06T03:21:51;7.70;;;3.50;;
46651;SDS011;32377;52.182;5.398;2022-08-06T03:24:18;9.48;;;3.50;;
46651;SDS011;32377;52.182;5.398;2022-08-06T03:26:44;12.07;;;3.95;;
46651;SDS011;32377;52.182;5.398;2022-08-06T03:29:11;6.75;;;3.30;;
46651;SDS011;32377;52.182;5.398;2022-08-06T03:31:38;8.95;;;3.42;;
46651;SDS011;32377;52.182;5.398;2022-08-06T03:34:04;10.02;;;3.60;;
46651;SDS011;32377;52.182;5.398;2022-08-06T03:36:31;7.43;;;3.20;;
46651;SDS011;32377;52.182;5.398;2022-08-06T03:39:00;9.00;;;3.63;;
46651;SDS011;32377;52.182;5.398;2022-08-06T03:41:28;6.75;;;3.90;;
46651;SDS011;32377;52.182;5.398;2022-08-06T03:43:55;7.10;;;3.72;;
46651;SDS011;32377;52.182;5.398;2022-08-06T03:46:23;15.98;;;3.75;;
46651;SDS011;32377;52.182;5.398;2022-08-06T03:48:52;6.20;;;3.00;;
46651;SDS011;32377;52.182;5.398;2022-08-06T03:51:20;9.77;;;3.42;;
46651;SDS011;32377;52.182;5.398;2022-08-06T03:53:48;12.27;;;3.35;;
46651;SDS011;32377;52.182;5.398;2022-08-06T03:56:18;8.68;;;3.03;;
46651;SDS011;32377;52.182;5.398;2022-08-06T03:58:47;11.52;;;3.17;;
46651;SDS011;32377;52.182;5.398;2022-08-06T04:01:16;11.82;;;3.65;;
46651;SDS011;32377;52.182;5.398;2022-08-06T04:03:46;11.85;;;3.22;;
46651;SDS011;32377;52.182;5.398;2022-08-06T04:06:12;10.05;;;3.88;;
46651;SDS011;32377;52.182;5.398;2022-08-06T04:08:39;8.10;;;3.60;;
46651;SDS011;32377;52.182;5.398;2022-08-06T04:11:05;9.70;;;3.58;;
46651;SDS011;32377;52.182;5.398;2022-08-06T04:13:32;11.80;;;3.33;;
46651;SDS011;32377;52.182;5.398;2022-08-06T04:15:57;8.80;;;3.80;;
46651;SDS011;32377;52.182;5.398;2022-08-06T04:18:24;8.48;;;3.65;;
46651;SDS011;32377;52.182;5.398;2022-08-06T04:20:54;10.15;;;3.33;;
46651;SDS011;32377;52.182;5.398;2022-08-06T04:23:22;12.85;;;4.05;;
46651;SDS011;32377;52.182;5.398;2022-08-06T04:25:53;6.13;;;3.35;;
46651;SDS011;32377;52.182;5.398;2022-08-06T04:28:20;9.65;;;3.80;;
46651;SDS011;32377;52.182;5.398;2022-08-06T04:30:48;8.60;;;3.58;;
46651;SDS011;32377;52.182;5.398;2022-08-06T04:33:15;10.20;;;3.50;;
46651;SDS011;32377;52.182;5.398;2022-08-06T04:35:46;9.77;;;3.50;;
46651;SDS011;32377;52.182;5.398;2022-08-06T04:38:12;8.10;;;3.72;;
46651;SDS011;32377;52.182;5.398;2022-08-06T04:40:41;8.25;;;3.55;;
46651;SDS011;32377;52.182;5.398;2022-08-06T04:43:08;9.38;;;3.60;;
46651;SDS011;32377;52.182;5.398;2022-08-06T04:45:38;11.68;;;3.60;;
46651;SDS011;32377;52.182;5.398;2022-08-06T04:48:06;6.28;;;2.97;;
46651;SDS011;32377;52.182;5.398;2022-08-06T04:50:34;7.32;;;3.40;;
46651;SDS011;32377;52.182;5.398;2022-08-06T04:53:05;7.82;;;3.38;;
46651;SDS011;32377;52.182;5.398;2022-08-06T04:55:35;11.90;;;3.75;;
46651;SDS011;32377;52.182;5.398;2022-08-06T04:58:01;11.77;;;3.47;;
46651;SDS011;32377;52.182;5.398;2022-08-06T05:00:29;8.10;;;3.42;;
46651;SDS011;32377;52.182;5.398;2022-08-06T05:02:59;9.43;;;3.10;;
46651;SDS011;32377;52.182;5.398;2022-08-06T05:05:25;7.65;;;3.03;;
46651;SDS011;32377;52.182;5.398;2022-08-06T05:07:52;5.47;;;3.33;;
46651;SDS011;32377;52.182;5.398;2022-08-06T05:10:22;11.02;;;3.35;;
46651;SDS011;32377;52.182;5.398;2022-08-06T05:12:55;7.70;;;2.97;;
46651;SDS011;32377;52.182;5.398;2022-08-06T05:15:28;6.10;;;3.38;;
46651;SDS011;32377;52.182;5.398;2022-08-06T05:18:00;5.35;;;3.00;;
46651;SDS011;32377;52.182;5.398;2022-08-06T05:20:31;11.38;;;3.00;;
46651;SDS011;32377;52.182;5.398;2022-08-06T05:23:00;10.32;;;3.08;;
46651;SDS011;32377;52.182;5.398;2022-08-06T05:25:31;6.32;;;2.63;;
46651;SDS011;32377;52.182;5.398;2022-08-06T05:28:00;8.57;;;2.70;;
46651;SDS011;32377;52.182;5.398;2022-08-06T05:30:26;5.70;;;2.45;;
46651;SDS011;32377;52.182;5.398;2022-08-06T05:32:51;6.63;;;2.70;;
46651;SDS011;32377;52.182;5.398;2022-08-06T05:35:17;10.27;;;3.03;;
46651;SDS011;32377;52.182;5.398;2022-08-06T05:37:43;6.95;;;2.40;;
46651;SDS011;32377;52.182;5.398;2022-08-06T05:40:09;5.18;;;2.17;;
46651;SDS011;32377;52.182;5.398;2022-08-06T05:42:34;6.20;;;1.90;;
46651;SDS011;32377;52.182;5.398;2022-08-06T05:45:00;6.05;;;2.20;;
46651;SDS011;32377;52.182;5.398;2022-08-06T05:47:27;5.93;;;2.20;;
46651;SDS011;32377;52.182;5.398;2022-08-06T05:50:11;7.20;;;2.20;;
46651;SDS011;32377;52.182;5.398;2022-08-06T05:52:45;3.85;;;1.90;;
46651;SDS011;32377;52.182;5.398;2022-08-06T05:58:15;6.10;;;1.80;;
46651;SDS011;32377;52.182;5.398;2022-08-06T06:00:48;7.22;;;1.83;;
46651;SDS011;32377;52.182;5.398;2022-08-06T06:03:16;6.53;;;1.70;;
46651;SDS011;32377;52.182;5.398;2022-08-06T06:05:44;4.60;;;1.88;;
46651;SDS011;32377;52.182;5.398;2022-08-06T06:08:10;8.60;;;2.20;;
46651;SDS011;32377;52.182;5.398;2022-08-06T06:10:36;6.70;;;1.92;;
46651;SDS011;32377;52.182;5.398;2022-08-06T06:13:04;6.40;;;1.65;;
46651;SDS011;32377;52.182;5.398;2022-08-06T06:15:30;10.25;;;2.55;;
46651;SDS011;32377;52.182;5.398;2022-08-06T06:18:12;2.97;;;1.67;;
46651;SDS011;32377;52.182;5.398;2022-08-06T06:21:01;6.07;;;2.15;;
46651;SDS011;32377;52.182;5.398;2022-08-06T06:23:38;7.55;;;2.22;;
46651;SDS011;32377;52.182;5.398;2022-08-06T06:26:17;4.63;;;1.80;;
46651;SDS011;32377;52.182;5.398;2022-08-06T06:29:27;5.25;;;1.52;;
46651;SDS011;32377;52.182;5.398;2022-08-06T06:37:24;2.03;;;1.35;;
46651;SDS011;32377;52.182;5.398;2022-08-06T06:39:56;6.40;;;1.40;;
46651;SDS011;32377;52.182;5.398;2022-08-06T06:42:25;4.40;;;1.60;;
46651;SDS011;32377;52.182;5.398;2022-08-06T06:50:05;7.03;;;1.20;;
46651;SDS011;32377;52.182;5.398;2022-08-06T06:52:38;5.22;;;1.45;;
46651;SDS011;32377;52.182;5.398;2022-08-06T06:55:12;5.97;;;1.70;;
46651;SDS011;32377;52.182;5.398;2022-08-06T06:57:40;7.10;;;1.55;;
46651;SDS011;32377;52.182;5.398;2022-08-06T07:00:09;5.03;;;0.95;;
46651;SDS011;32377;52.182;5.398;2022-08-06T07:02:37;3.90;;;1.13;;
46651;SDS011;32377;52.182;5.398;2022-08-06T07:05:05;3.75;;;1.00;;
46651;SDS011;32377;52.182;5.398;2022-08-06T07:07:38;4.28;;;1.20;;
46651;SDS011;32377;52.182;5.398;2022-08-06T07:10:06;6.38;;;1.40;;
46651;SDS011;32377;52.182;5.398;2022-08-06T07:12:33;5.43;;;1.25;;
46651;SDS011;32377;52.182;5.398;2022-08-06T07:15:04;6.45;;;1.23;;
46651;SDS011;32377;52.182;5.398;2022-08-06T07:17:32;3.72;;;0.80;;
46651;SDS011;32377;52.182;5.398;2022-08-06T07:20:00;3.33;;;1.27;;
46651;SDS011;32377;52.182;5.398;2022-08-06T07:22:30;4.00;;;1.20;;
46651;SDS011;32377;52.182;5.398;2022-08-06T07:25:00;5.95;;;1.20;;
46651;SDS011;32377;52.182;5.398;2022-08-06T07:27:42;6.68;;;1.30;;
46651;SDS011;32377;52.182;5.398;2022-08-06T07:30:14;6.18;;;1.02;;
46651;SDS011;32377;52.182;5.398;2022-08-06T07:32:41;3.88;;;1.00;;
46651;SDS011;32377;52.182;5.398;2022-08-06T07:35:08;2.78;;;1.00;;
46651;SDS011;32377;52.182;5.398;2022-08-06T07:37:35;3.08;;;0.77;;
46651;SDS011;32377;52.182;5.398;2022-08-06T07:40:06;3.95;;;0.88;;
46651;SDS011;32377;52.182;5.398;2022-08-06T07:42:34;5.80;;;1.02;;
46651;SDS011;32377;52.182;5.398;2022-08-06T07:45:02;4.55;;;1.05;;
46651;SDS011;32377;52.182;5.398;2022-08-06T07:47:41;4.38;;;1.08;;
46651;SDS011;32377;52.182;5.398;2022-08-06T07:50:12;3.67;;;0.98;;
46651;SDS011;32377;52.182;5.398;2022-08-06T07:52:39;3.45;;;0.88;;
46651;SDS011;32377;52.182;5.398;2022-08-06T07:55:06;4.55;;;1.00;;
46651;SDS011;32377;52.182;5.398;2022-08-06T07:57:33;2.88;;;0.80;;
46651;SDS011;32377;52.182;5.398;2022-08-06T08:00:00;4.43;;;0.82;;
46651;SDS011;32377;52.182;5.398;2022-08-06T08:02:25;6.97;;;0.90;;
46651;SDS011;32377;52.182;5.398;2022-08-06T08:04:53;1.55;;;0.80;;
46651;SDS011;32377;52.182;5.398;2022-08-06T08:07:37;9.05;;;1.50;;
46651;SDS011;32377;52.182;5.398;2022-08-06T08:10:03;4.55;;;1.08;;
46651;SDS011;32377;52.182;5.398;2022-08-06T08:12:30;1.40;;;0.68;;
46651;SDS011;32377;52.182;5.398;2022-08-06T08:14:57;3.33;;;0.93;;
46651;SDS011;32377;52.182;5.398;2022-08-06T08:17:23;4.35;;;0.85;;
46651;SDS011;32377;52.182;5.398;2022-08-06T08:19:49;4.18;;;1.00;;
46651;SDS011;32377;52.182;5.398;2022-08-06T08:22:15;5.07;;;0.93;;
46651;SDS011;32377;52.182;5.398;2022-08-06T08:24:44;2.63;;;0.85;;
46651;SDS011;32377;52.182;5.398;2022-08-06T08:27:11;3.80;;;1.23;;
46651;SDS011;32377;52.182;5.398;2022-08-06T08:29:37;2.03;;;0.73;;
46651;SDS011;32377;52.182;5.398;2022-08-06T08:32:04;3.58;;;0.70;;
46651;SDS011;32377;52.182;5.398;2022-08-06T08:34:31;3.53;;;0.93;;
46651;SDS011;32377;52.182;5.398;2022-08-06T08:36:57;2.10;;;0.90;;
46651;SDS011;32377;52.182;5.398;2022-08-06T08:39:22;1.35;;;0.68;;
46651;SDS011;32377;52.182;5.398;2022-08-06T08:41:52;1.73;;;0.70;;
46651;SDS011;32377;52.182;5.398;2022-08-06T08:44:24;1.95;;;0.85;;
46651;SDS011;32377;52.182;5.398;2022-08-06T08:46:53;2.45;;;0.88;;
46651;SDS011;32377;52.182;5.398;2022-08-06T08:49:27;1.15;;;0.50;;
46651;SDS011;32377;52.182;5.398;2022-08-06T08:51:59;2.33;;;1.05;;
46651;SDS011;32377;52.182;5.398;2022-08-06T08:54:27;1.60;;;0.80;;
46651;SDS011;32377;52.182;5.398;2022-08-06T08:56:56;1.73;;;0.70;;
46651;SDS011;32377;52.182;5.398;2022-08-06T08:59:22;2.85;;;0.70;;
46651;SDS011;32377;52.182;5.398;2022-08-06T09:01:48;1.65;;;0.73;;
46651;SDS011;32377;52.182;5.398;2022-08-06T09:04:14;4.10;;;0.93;;
46651;SDS011;32377;52.182;5.398;2022-08-06T09:06:41;1.00;;;0.60;;
46651;SDS011;32377;52.182;5.398;2022-08-06T09:09:07;0.90;;;0.60;;
46651;SDS011;32377;52.182;5.398;2022-08-06T09:11:34;1.48;;;0.70;;
46651;SDS011;32377;52.182;5.398;2022-08-06T09:14:01;2.10;;;0.63;;
46651;SDS011;32377;52.182;5.398;2022-08-06T09:16:31;0.98;;;0.60;;
46651;SDS011;32377;52.182;5.398;2022-08-06T09:18:58;1.58;;;0.70;;
46651;SDS011;32377;52.182;5.398;2022-08-06T09:21:25;2.28;;;0.73;;
46651;SDS011;32377;52.182;5.398;2022-08-06T09:23:51;4.10;;;0.70;;
46651;SDS011;32377;52.182;5.398;2022-08-06T09:26:17;3.53;;;0.75;;
46651;SDS011;32377;52.182;5.398;2022-08-06T09:28:43;2.13;;;0.60;;
46651;SDS011;32377;52.182;5.398;2022-08-06T09:31:10;2.28;;;0.65;;
46651;SDS011;32377;52.182;5.398;2022-08-06T09:33:37;1.70;;;0.52;;
46651;SDS011;32377;52.182;5.398;2022-08-06T09:36:11;1.42;;;0.60;;
46651;SDS011;32377;52.182;5.398;2022-08-06T09:38:47;3.28;;;0.80;;
46651;SDS011;32377;52.182;5.398;2022-08-06T09:41:25;2.63;;;0.80;;
46651;SDS011;32377;52.182;5.398;2022-08-06T09:43:53;4.35;;;0.63;;
46651;SDS011;32377;52.182;5.398;2022-08-06T09:46:39;1.20;;;0.70;;
46651;SDS011;32377;52.182;5.398;2022-08-06T09:49:09;2.38;;;0.50;;
46651;SDS011;32377;52.182;5.398;2022-08-06T09:51:36;1.77;;;0.50;;
46651;SDS011;32377;52.182;5.398;2022-08-06T09:54:03;1.55;;;0.50;;
46651;SDS011;32377;52.182;5.398;2022-08-06T09:56:31;0.80;;;0.50;;
46651;SDS011;32377;52.182;5.398;2022-08-06T09:59:01;3.17;;;0.70;;
46651;SDS011;32377;52.182;5.398;2022-08-06T10:01:37;2.25;;;0.80;;
46651;SDS011;32377;52.182;5.398;2022-08-06T10:04:12;2.28;;;0.45;;
46651;SDS011;32377;52.182;5.398;2022-08-06T10:06:52;1.92;;;0.60;;
46651;SDS011;32377;52.182;5.398;2022-08-06T10:09:18;0.60;;;0.60;;
46651;SDS011;32377;52.182;5.398;2022-08-06T10:11:44;2.13;;;0.40;;
46651;SDS011;32377;52.182;5.398;2022-08-06T10:14:23;1.55;;;0.47;;
46651;SDS011;32377;52.182;5.398;2022-08-06T10:19:34;1.70;;;0.50;;
46651;SDS011;32377;52.182;5.398;2022-08-06T10:27:23;0.30;;;0.30;;
46651;SDS011;32377;52.182;5.398;2022-08-06T10:29:54;1.27;;;0.40;;
46651;SDS011;32377;52.182;5.398;2022-08-06T10:32:25;0.68;;;0.50;;
46651;SDS011;32377;52.182;5.398;2022-08-06T10:34:57;0.60;;;0.40;;
46651;SDS011;32377;52.182;5.398;2022-08-06T10:37:30;3.25;;;0.60;;
46651;SDS011;32377;52.182;5.398;2022-08-06T10:40:00;3.03;;;0.50;;
46651;SDS011;32377;52.182;5.398;2022-08-06T10:42:27;3.35;;;0.77;;
46651;SDS011;32377;52.182;5.398;2022-08-06T10:44:54;2.13;;;0.60;;
46651;SDS011;32377;52.182;5.398;2022-08-06T10:47:21;0.98;;;0.60;;
46651;SDS011;32377;52.182;5.398;2022-08-06T10:49:47;1.58;;;1.00;;
46651;SDS011;32377;52.182;5.398;2022-08-06T10:52:13;1.77;;;0.80;;
46651;SDS011;32377;52.182;5.398;2022-08-06T10:54:40;1.13;;;0.70;;
46651;SDS011;32377;52.182;5.398;2022-08-06T10:57:08;2.90;;;0.68;;
46651;SDS011;32377;52.182;5.398;2022-08-06T10:59:37;3.85;;;0.93;;
46651;SDS011;32377;52.182;5.398;2022-08-06T11:05:03;1.20;;;0.73;;
46651;SDS011;32377;52.182;5.398;2022-08-06T11:07:51;2.38;;;0.80;;
46651;SDS011;32377;52.182;5.398;2022-08-06T11:15:54;2.22;;;0.70;;
46651;SDS011;32377;52.182;5.398;2022-08-06T11:18:19;0.95;;;0.75;;
46651;SDS011;32377;52.182;5.398;2022-08-06T11:20:46;4.35;;;0.98;;
46651;SDS011;32377;52.182;5.398;2022-08-06T11:25:46;2.17;;;0.75;;
46651;SDS011;32377;52.182;5.398;2022-08-06T11:28:17;3.80;;;1.10;;
46651;SDS011;32377;52.182;5.398;2022-08-06T11:30:45;2.90;;;0.88;;
46651;SDS011;32377;52.182;5.398;2022-08-06T11:35:48;3.25;;;1.17;;
46651;SDS011;32377;52.182;5.398;2022-08-06T11:39:00;1.70;;;1.10;;
46651;SDS011;32377;52.182;5.398;2022-08-06T11:41:17;3.83;;;0.70;;
46651;SDS011;32377;52.182;5.398;2022-08-06T11:43:47;1.50;;;1.05;;
46651;SDS011;32377;52.182;5.398;2022-08-06T11:46:29;2.00;;;1.10;;
46651;SDS011;32377;52.182;5.398;2022-08-06T11:54:15;1.30;;;0.82;;
46651;SDS011;32377;52.182;5.398;2022-08-06T11:59:26;2.20;;;0.98;;
46651;SDS011;32377;52.182;5.398;2022-08-06T12:01:56;2.65;;;1.25;;
46651;SDS011;32377;52.182;5.398;2022-08-06T12:07:20;3.45;;;0.90;;
46651;SDS011;32377;52.182;5.398;2022-08-06T12:10:01;2.05;;;1.00;;
46651;SDS011;32377;52.182;5.398;2022-08-06T12:17:40;1.15;;;0.65;;
46651;SDS011;32377;52.182;5.398;2022-08-06T12:20:06;1.98;;;0.68;;
46651;SDS011;32377;52.182;5.398;2022-08-06T12:22:34;1.90;;;0.70;;
46651;SDS011;32377;52.182;5.398;2022-08-06T12:25:02;2.80;;;0.70;;
46651;SDS011;32377;52.182;5.398;2022-08-06T12:27:35;2.38;;;0.70;;
46651;SDS011;32377;52.182;5.398;2022-08-06T12:30:01;2.40;;;0.80;;
46651;SDS011;32377;52.182;5.398;2022-08-06T12:32:32;1.20;;;0.70;;
46651;SDS011;32377;52.182;5.398;2022-08-06T12:35:17;2.50;;;1.00;;
46651;SDS011;32377;52.182;5.398;2022-08-06T12:37:45;1.90;;;0.70;;
46651;SDS011;32377;52.182;5.398;2022-08-06T12:40:15;1.65;;;0.90;;
46651;SDS011;32377;52.182;5.398;2022-08-06T12:45:28;1.75;;;0.68;;
46651;SDS011;32377;52.182;5.398;2022-08-06T12:47:58;3.20;;;0.60;;
46651;SDS011;32377;52.182;5.398;2022-08-06T12:50:29;1.52;;;0.80;;
46651;SDS011;32377;52.182;5.398;2022-08-06T12:53:07;2.10;;;0.80;;
46651;SDS011;32377;52.182;5.398;2022-08-06T12:55:46;1.38;;;0.70;;
46651;SDS011;32377;52.182;5.398;2022-08-06T12:58:17;1.98;;;0.90;;
46651;SDS011;32377;52.182;5.398;2022-08-06T13:00:46;2.72;;;0.70;;
46651;SDS011;32377;52.182;5.398;2022-08-06T13:03:14;2.35;;;0.82;;
46651;SDS011;32377;52.182;5.398;2022-08-06T13:05:42;0.85;;;0.60;;
46651;SDS011;32377;52.182;5.398;2022-08-06T13:08:09;1.30;;;0.85;;
46651;SDS011;32377;52.182;5.398;2022-08-06T13:10:35;3.70;;;0.70;;
46651;SDS011;32377;52.182;5.398;2022-08-06T13:13:03;1.65;;;0.70;;
46651;SDS011;32377;52.182;5.398;2022-08-06T13:15:30;4.55;;;0.60;;
46651;SDS011;32377;52.182;5.398;2022-08-06T13:18:00;3.47;;;0.90;;
46651;SDS011;32377;52.182;5.398;2022-08-06T13:20:38;1.88;;;0.80;;
46651;SDS011;32377;52.182;5.398;2022-08-06T13:23:08;3.97;;;0.85;;
46651;SDS011;32377;52.182;5.398;2022-08-06T13:25:43;6.97;;;1.10;;
46651;SDS011;32377;52.182;5.398;2022-08-06T13:28:13;1.67;;;0.90;;
46651;SDS011;32377;52.182;5.398;2022-08-06T13:30:41;5.10;;;0.80;;
46651;SDS011;32377;52.182;5.398;2022-08-06T13:33:17;1.23;;;0.80;;
46651;SDS011;32377;52.182;5.398;2022-08-06T13:35:46;1.10;;;0.77;;
46651;SDS011;32377;52.182;5.398;2022-08-06T13:38:29;1.80;;;1.00;;
46651;SDS011;32377;52.182;5.398;2022-08-06T13:40:56;1.80;;;0.60;;
46651;SDS011;32377;52.182;5.398;2022-08-06T13:43:33;1.67;;;0.80;;
46651;SDS011;32377;52.182;5.398;2022-08-06T13:46:06;1.38;;;0.80;;
46651;SDS011;32377;52.182;5.398;2022-08-06T13:48:33;1.40;;;0.77;;
46651;SDS011;32377;52.182;5.398;2022-08-06T13:50:59;2.75;;;1.33;;
46651;SDS011;32377;52.182;5.398;2022-08-06T13:53:27;3.47;;;0.95;;
46651;SDS011;32377;52.182;5.398;2022-08-06T13:55:56;4.47;;;4.07;;
46651;SDS011;32377;52.182;5.398;2022-08-06T13:58:21;4.78;;;1.05;;
46651;SDS011;32377;52.182;5.398;2022-08-06T14:00:47;3.53;;;2.08;;
46651;SDS011;32377;52.182;5.398;2022-08-06T14:03:13;1.73;;;0.98;;
46651;SDS011;32377;52.182;5.398;2022-08-06T14:05:38;2.70;;;0.90;;
46651;SDS011;32377;52.182;5.398;2022-08-06T14:08:04;3.72;;;1.10;;
46651;SDS011;32377;52.182;5.398;2022-08-06T14:10:30;2.22;;;0.90;;
46651;SDS011;32377;52.182;5.398;2022-08-06T14:12:56;2.80;;;1.02;;
46651;SDS011;32377;52.182;5.398;2022-08-06T14:15:40;5.50;;;1.52;;
46651;SDS011;32377;52.182;5.398;2022-08-06T14:18:06;2.08;;;1.13;;
46651;SDS011;32377;52.182;5.398;2022-08-06T14:20:31;4.15;;;1.15;;
46651;SDS011;32377;52.182;5.398;2022-08-06T14:22:59;5.80;;;1.20;;
46651;SDS011;32377;52.182;5.398;2022-08-06T14:25:25;2.83;;;1.25;;
46651;SDS011;32377;52.182;5.398;2022-08-06T14:27:51;3.38;;;1.08;;
46651;SDS011;32377;52.182;5.398;2022-08-06T14:30:18;4.00;;;1.17;;
46651;SDS011;32377;52.182;5.398;2022-08-06T14:32:44;5.55;;;1.27;;
46651;SDS011;32377;52.182;5.398;2022-08-06T14:35:09;1.65;;;1.23;;
46651;SDS011;32377;52.182;5.398;2022-08-06T14:37:38;4.72;;;1.20;;
46651;SDS011;32377;52.182;5.398;2022-08-06T14:40:07;1.95;;;1.17;;
46651;SDS011;32377;52.182;5.398;2022-08-06T14:42:33;2.78;;;1.00;;
46651;SDS011;32377;52.182;5.398;2022-08-06T14:45:17;1.80;;;0.90;;
46651;SDS011;32377;52.182;5.398;2022-08-06T14:47:46;4.75;;;1.48;;
46651;SDS011;32377;52.182;5.398;2022-08-06T14:50:12;2.58;;;1.10;;
46651;SDS011;32377;52.182;5.398;2022-08-06T14:52:37;1.92;;;1.30;;
46651;SDS011;32377;52.182;5.398;2022-08-06T14:55:05;4.70;;;1.20;;
46651;SDS011;32377;52.182;5.398;2022-08-06T14:57:32;2.47;;;1.42;;
46651;SDS011;32377;52.182;5.398;2022-08-06T14:59:58;3.30;;;1.50;;
46651;SDS011;32377;52.182;5.398;2022-08-06T15:02:23;2.25;;;1.10;;
46651;SDS011;32377;52.182;5.398;2022-08-06T15:04:49;1.75;;;1.42;;
46651;SDS011;32377;52.182;5.398;2022-08-06T15:07:16;2.42;;;1.30;;
46651;SDS011;32377;52.182;5.398;2022-08-06T15:09:41;2.05;;;1.20;;
46651;SDS011;32377;52.182;5.398;2022-08-06T15:12:07;1.85;;;1.30;;
46651;SDS011;32377;52.182;5.398;2022-08-06T15:14:33;2.00;;;1.50;;
46651;SDS011;32377;52.182;5.398;2022-08-06T15:16:59;4.78;;;1.50;;
46651;SDS011;32377;52.182;5.398;2022-08-06T15:19:25;3.88;;;1.20;;
46651;SDS011;32377;52.182;5.398;2022-08-06T15:21:51;5.25;;;1.20;;
46651;SDS011;32377;52.182;5.398;2022-08-06T15:24:17;4.25;;;1.60;;
46651;SDS011;32377;52.182;5.398;2022-08-06T15:26:43;4.13;;;1.30;;
46651;SDS011;32377;52.182;5.398;2022-08-06T15:29:09;2.17;;;1.50;;
46651;SDS011;32377;52.182;5.398;2022-08-06T15:31:35;3.10;;;1.58;;
46651;SDS011;32377;52.182;5.398;2022-08-06T15:34:01;3.22;;;1.27;;
46651;SDS011;32377;52.182;5.398;2022-08-06T15:36:27;1.20;;;1.10;;
46651;SDS011;32377;52.182;5.398;2022-08-06T15:38:52;2.95;;;1.50;;
46651;SDS011;32377;52.182;5.398;2022-08-06T15:41:18;1.98;;;1.35;;
46651;SDS011;32377;52.182;5.398;2022-08-06T15:43:48;1.60;;;1.20;;
46651;SDS011;32377;52.182;5.398;2022-08-06T15:46:17;1.75;;;1.25;;
46651;SDS011;32377;52.182;5.398;2022-08-06T15:48:44;3.90;;;1.65;;
46651;SDS011;32377;52.182;5.398;2022-08-06T15:51:10;1.73;;;1.60;;
46651;SDS011;32377;52.182;5.398;2022-08-06T15:53:35;2.75;;;1.23;;
46651;SDS011;32377;52.182;5.398;2022-08-06T15:56:01;3.97;;;1.85;;
46651;SDS011;32377;52.182;5.398;2022-08-06T15:58:27;6.80;;;1.70;;
46651;SDS011;32377;52.182;5.398;2022-08-06T16:00:52;2.17;;;1.13;;